sensor_id;sensor_type;location;lat;lon;timestamp;P1;durP1;ratioP1;P2;durP2;ratioP2
9234;SDS011;4652;42.716;23.218;2022-10-16T00:03:45;9.37;;;7.37;;
9234;SDS011;4652;42.716;23.218;2022-10-16T00:10:29;9.20;;;7.70;;
9234;SDS011;4652;42.716;23.218;2022-10-16T00:17:12;9.57;;;7.13;;
9234;SDS011;4652;42.716;23.218;2022-10-16T00:23:54;10.43;;;8.07;;
9234;SDS011;4652;42.716;23.218;2022-10-16T00:30:39;9.07;;;7.23;;
9234;SDS011;4652;42.716;23.218;2022-10-16T00:37:21;10.37;;;7.83;;
9234;SDS011;4652;42.716;23.218;2022-10-16T00:44:40;9.93;;;7.73;;
9234;SDS011;4652;42.716;23.218;2022-10-16T00:51:28;8.90;;;7.80;;
9234;SDS011;4652;42.716;23.218;2022-10-16T00:58:13;8.63;;;7.33;;
9234;SDS011;4652;42.716;23.218;2022-10-16T01:04:56;11.50;;;7.37;;
9234;SDS011;4652;42.716;23.218;2022-10-16T01:11:41;11.70;;;8.57;;
9234;SDS011;4652;42.716;23.218;2022-10-16T01:18:32;9.40;;;7.60;;
9234;SDS011;4652;42.716;23.218;2022-10-16T01:25:21;10.33;;;7.63;;
9234;SDS011;4652;42.716;23.218;2022-10-16T01:32:15;9.50;;;8.30;;
9234;SDS011;4652;42.716;23.218;2022-10-16T01:39:00;11.20;;;8.50;;
9234;SDS011;4652;42.716;23.218;2022-10-16T01:45:44;10.53;;;8.10;;
9234;SDS011;4652;42.716;23.218;2022-10-16T01:52:29;8.60;;;7.33;;
9234;SDS011;4652;42.716;23.218;2022-10-16T01:59:14;11.83;;;7.80;;
9234;SDS011;4652;42.716;23.218;2022-10-16T02:05:59;9.47;;;7.80;;
9234;SDS011;4652;42.716;23.218;2022-10-16T02:12:44;10.93;;;8.10;;
9234;SDS011;4652;42.716;23.218;2022-10-16T02:19:31;9.13;;;7.80;;
9234;SDS011;4652;42.716;23.218;2022-10-16T02:26:13;9.70;;;8.03;;
9234;SDS011;4652;42.716;23.218;2022-10-16T02:33:02;9.27;;;8.13;;
9234;SDS011;4652;42.716;23.218;2022-10-16T02:39:48;8.50;;;7.50;;
9234;SDS011;4652;42.716;23.218;2022-10-16T02:46:30;10.53;;;8.13;;
9234;SDS011;4652;42.716;23.218;2022-10-16T02:53:14;12.57;;;8.87;;
9234;SDS011;4652;42.716;23.218;2022-10-16T02:59:56;10.10;;;8.43;;
9234;SDS011;4652;42.716;23.218;2022-10-16T03:06:38;10.20;;;8.10;;
9234;SDS011;4652;42.716;23.218;2022-10-16T03:13:22;10.67;;;7.70;;
9234;SDS011;4652;42.716;23.218;2022-10-16T03:20:04;10.03;;;8.17;;
9234;SDS011;4652;42.716;23.218;2022-10-16T03:26:47;11.10;;;8.03;;
9234;SDS011;4652;42.716;23.218;2022-10-16T03:33:30;10.67;;;8.13;;
9234;SDS011;4652;42.716;23.218;2022-10-16T03:40:12;12.60;;;7.53;;
9234;SDS011;4652;42.716;23.218;2022-10-16T03:46:55;9.80;;;8.30;;
9234;SDS011;4652;42.716;23.218;2022-10-16T03:53:39;11.40;;;8.53;;
9234;SDS011;4652;42.716;23.218;2022-10-16T04:00:21;10.63;;;9.10;;
9234;SDS011;4652;42.716;23.218;2022-10-16T04:07:03;10.87;;;9.13;;
9234;SDS011;4652;42.716;23.218;2022-10-16T04:13:47;11.00;;;8.63;;
9234;SDS011;4652;42.716;23.218;2022-10-16T04:20:29;13.90;;;9.60;;
9234;SDS011;4652;42.716;23.218;2022-10-16T04:27:11;9.77;;;8.37;;
9234;SDS011;4652;42.716;23.218;2022-10-16T04:33:54;12.00;;;8.80;;
9234;SDS011;4652;42.716;23.218;2022-10-16T04:40:36;10.30;;;8.77;;
9234;SDS011;4652;42.716;23.218;2022-10-16T04:47:18;10.67;;;8.93;;
9234;SDS011;4652;42.716;23.218;2022-10-16T04:54:02;11.47;;;8.27;;
9234;SDS011;4652;42.716;23.218;2022-10-16T05:00:44;10.43;;;8.33;;
9234;SDS011;4652;42.716;23.218;2022-10-16T05:07:27;13.23;;;9.63;;
9234;SDS011;4652;42.716;23.218;2022-10-16T05:14:10;16.10;;;9.77;;
9234;SDS011;4652;42.716;23.218;2022-10-16T05:20:53;11.63;;;8.10;;
9234;SDS011;4652;42.716;23.218;2022-10-16T05:27:35;8.03;;;7.23;;
9234;SDS011;4652;42.716;23.218;2022-10-16T05:34:19;7.40;;;6.70;;
9234;SDS011;4652;42.716;23.218;2022-10-16T05:41:02;6.50;;;5.90;;
9234;SDS011;4652;42.716;23.218;2022-10-16T05:47:45;6.40;;;5.80;;
9234;SDS011;4652;42.716;23.218;2022-10-16T05:54:28;8.13;;;5.90;;
9234;SDS011;4652;42.716;23.218;2022-10-16T06:01:11;7.60;;;6.00;;
9234;SDS011;4652;42.716;23.218;2022-10-16T06:07:54;8.37;;;7.47;;
9234;SDS011;4652;42.716;23.218;2022-10-16T06:14:38;7.13;;;6.43;;
9234;SDS011;4652;42.716;23.218;2022-10-16T06:21:20;9.43;;;8.43;;
9234;SDS011;4652;42.716;23.218;2022-10-16T06:28:04;10.73;;;9.63;;
9234;SDS011;4652;42.716;23.218;2022-10-16T06:34:49;13.53;;;11.43;;
9234;SDS011;4652;42.716;23.218;2022-10-16T06:41:31;11.30;;;10.10;;
9234;SDS011;4652;42.716;23.218;2022-10-16T06:48:13;11.33;;;9.60;;
9234;SDS011;4652;42.716;23.218;2022-10-16T06:54:56;10.70;;;9.63;;
9234;SDS011;4652;42.716;23.218;2022-10-16T07:01:38;11.43;;;9.13;;
9234;SDS011;4652;42.716;23.218;2022-10-16T07:08:20;11.03;;;9.93;;
9234;SDS011;4652;42.716;23.218;2022-10-16T07:15:05;11.83;;;10.67;;
9234;SDS011;4652;42.716;23.218;2022-10-16T07:21:47;10.90;;;9.80;;
9234;SDS011;4652;42.716;23.218;2022-10-16T07:28:29;10.43;;;9.33;;
9234;SDS011;4652;42.716;23.218;2022-10-16T07:35:14;11.07;;;10.07;;
9234;SDS011;4652;42.716;23.218;2022-10-16T07:41:56;11.93;;;10.63;;
9234;SDS011;4652;42.716;23.218;2022-10-16T07:48:38;11.27;;;10.07;;
9234;SDS011;4652;42.716;23.218;2022-10-16T07:55:21;15.20;;;13.70;;
9234;SDS011;4652;42.716;23.218;2022-10-16T08:02:03;14.95;;;13.55;;
9234;SDS011;4652;42.716;23.218;2022-10-16T08:08:45;12.13;;;10.02;;
9234;SDS011;4652;42.716;23.218;2022-10-16T08:15:29;12.80;;;11.50;;
9234;SDS011;4652;42.716;23.218;2022-10-16T08:22:11;14.77;;;13.27;;
9234;SDS011;4652;42.716;23.218;2022-10-16T08:28:53;11.07;;;8.57;;
9234;SDS011;4652;42.716;23.218;2022-10-16T08:35:37;10.67;;;8.67;;
9234;SDS011;4652;42.716;23.218;2022-10-16T08:42:22;11.00;;;8.13;;
9234;SDS011;4652;42.716;23.218;2022-10-16T08:49:14;9.20;;;7.13;;
9234;SDS011;4652;42.716;23.218;2022-10-16T08:55:57;11.53;;;7.93;;
9234;SDS011;4652;42.716;23.218;2022-10-16T09:02:40;8.70;;;6.83;;
9234;SDS011;4652;42.716;23.218;2022-10-16T09:09:37;9.17;;;6.67;;
9234;SDS011;4652;42.716;23.218;2022-10-16T09:16:30;6.83;;;5.90;;
9234;SDS011;4652;42.716;23.218;2022-10-16T09:23:17;5.60;;;5.00;;
9234;SDS011;4652;42.716;23.218;2022-10-16T09:30:00;6.20;;;5.00;;
9234;SDS011;4652;42.716;23.218;2022-10-16T09:36:44;6.53;;;5.37;;
9234;SDS011;4652;42.716;23.218;2022-10-16T09:43:28;6.30;;;5.20;;
9234;SDS011;4652;42.716;23.218;2022-10-16T09:50:20;4.73;;;4.33;;
9234;SDS011;4652;42.716;23.218;2022-10-16T09:57:10;5.77;;;5.17;;
9234;SDS011;4652;42.716;23.218;2022-10-16T10:03:55;5.40;;;4.90;;
9234;SDS011;4652;42.716;23.218;2022-10-16T10:10:41;5.23;;;3.97;;
9234;SDS011;4652;42.716;23.218;2022-10-16T10:17:26;4.33;;;3.93;;
9234;SDS011;4652;42.716;23.218;2022-10-16T10:24:12;4.80;;;4.00;;
9234;SDS011;4652;42.716;23.218;2022-10-16T10:30:56;4.83;;;4.07;;
9234;SDS011;4652;42.716;23.218;2022-10-16T10:37:54;5.63;;;4.80;;
9234;SDS011;4652;42.716;23.218;2022-10-16T10:44:53;6.80;;;4.17;;
9234;SDS011;4652;42.716;23.218;2022-10-16T10:51:44;4.67;;;4.17;;
9234;SDS011;4652;42.716;23.218;2022-10-16T10:58:42;6.70;;;5.03;;
9234;SDS011;4652;42.716;23.218;2022-10-16T11:05:40;5.47;;;4.00;;
9234;SDS011;4652;42.716;23.218;2022-10-16T11:12:25;6.23;;;5.23;;
9234;SDS011;4652;42.716;23.218;2022-10-16T11:19:14;4.70;;;4.20;;
9234;SDS011;4652;42.716;23.218;2022-10-16T11:26:09;4.23;;;3.70;;
9234;SDS011;4652;42.716;23.218;2022-10-16T11:33:00;9.40;;;6.03;;
9234;SDS011;4652;42.716;23.218;2022-10-16T11:39:54;5.57;;;4.07;;
9234;SDS011;4652;42.716;23.218;2022-10-16T11:46:45;7.60;;;3.70;;
9234;SDS011;4652;42.716;23.218;2022-10-16T11:53:35;6.10;;;4.63;;
9234;SDS011;4652;42.716;23.218;2022-10-16T12:00:27;6.60;;;3.80;;
9234;SDS011;4652;42.716;23.218;2022-10-16T12:07:12;3.70;;;3.40;;
9234;SDS011;4652;42.716;23.218;2022-10-16T12:14:18;4.60;;;3.50;;
9234;SDS011;4652;42.716;23.218;2022-10-16T12:21:04;3.60;;;3.30;;
9234;SDS011;4652;42.716;23.218;2022-10-16T12:27:53;3.57;;;3.27;;
9234;SDS011;4652;42.716;23.218;2022-10-16T12:34:38;4.60;;;3.47;;
